Time;durP1;ratioP1;P1;durP2;ratioP2;P2;SDS_P1;SDS_P2;PMS_P1;PMS_P2;Temp;Humidity;BMP_temperature;BMP_pressure;BME280_temperature;BME280_humidity;BME280_pressure;Samples;Min_cycle;Max_cycle;Signal;HPM_P1;HPM_P2
2022/03/04 00:01:03;;;;;;;26.33;12.80;;;0.90;84.70;;;;;;5071526;28;20415;-54
2022/03/04 00:03:29;;;;;;;24.20;12.77;;;1.50;85.50;;;;;;5070759;28;20924;-55
2022/03/04 00:05:54;;;;;;;24.25;13.20;;;1.00;84.70;;;;;;5071139;28;20388;-55
2022/03/04 00:08:20;;;;;;;22.45;11.95;;;1.00;84.10;;;;;;5070706;28;20387;-54
2022/03/04 00:10:46;;;;;;;23.50;12.87;;;1.30;84.10;;;;;;5071128;28;20379;-54
2022/03/04 00:13:12;;;;;;;24.58;13.75;;;1.50;83.70;;;;;;5070628;28;20884;-57
2022/03/04 00:15:39;;;;;;;25.02;12.90;;;1.20;84.10;;;;;;5067407;28;20400;-54
2022/03/04 00:18:05;;;;;;;24.95;12.18;;;1.10;84.00;;;;;;5070305;28;20406;-54
2022/03/04 00:20:31;;;;;;;25.90;13.17;;;1.10;84.00;;;;;;5070030;28;20416;-54
2022/03/04 00:22:57;;;;;;;26.58;12.63;;;1.00;83.60;;;;;;5061065;28;20418;-54
2022/03/04 00:25:22;;;;;;;23.80;12.55;;;1.10;83.90;;;;;;5070326;28;20888;-55
2022/03/04 00:27:48;;;;;;;25.05;12.73;;;1.10;84.00;;;;;;5071226;28;20892;-54
2022/03/04 00:30:14;;;;;;;24.10;12.80;;;1.10;84.40;;;;;;5067728;28;20395;-57
2022/03/04 00:32:39;;;;;;;26.65;12.90;;;1.00;85.00;;;;;;5070972;28;20906;-55
2022/03/04 00:35:06;;;;;;;24.65;12.95;;;0.90;85.30;;;;;;5071153;28;20372;-54
2022/03/04 00:37:32;;;;;;;27.55;14.70;;;0.90;87.20;;;;;;5069893;28;20609;-54
2022/03/04 00:39:58;;;;;;;25.95;14.85;;;0.80;87.40;;;;;;5070433;28;20430;-54
2022/03/04 00:42:24;;;;;;;23.07;12.57;;;0.70;87.70;;;;;;5069836;28;20856;-54
2022/03/04 00:44:50;;;;;;;29.23;13.82;;;0.80;88.60;;;;;;5070692;28;20415;-54
2022/03/04 00:47:16;;;;;;;25.60;14.17;;;0.70;90.00;;;;;;5065419;28;20473;-54
2022/03/04 00:49:41;;;;;;;25.67;15.20;;;0.60;90.30;;;;;;5068432;28;20385;-54
2022/03/04 00:52:07;;;;;;;22.15;12.80;;;0.50;91.10;;;;;;5060265;28;20392;-55
2022/03/04 00:54:33;;;;;;;27.00;14.00;;;0.40;91.80;;;;;;5069808;28;20372;-54
2022/03/04 00:56:58;;;;;;;25.37;13.37;;;0.30;92.60;;;;;;5069969;28;20384;-54
2022/03/04 00:59:24;;;;;;;26.70;13.65;;;0.10;93.70;;;;;;5069812;28;20438;-54
2022/03/04 01:01:50;;;;;;;24.98;13.85;;;-0.10;94.20;;;;;;5070069;28;20384;-54
2022/03/04 01:04:15;;;;;;;27.57;14.20;;;-0.20;94.80;;;;;;5065908;28;20883;-55
2022/03/04 01:06:41;;;;;;;28.60;14.40;;;-0.30;95.20;;;;;;5069836;28;20384;-54
2022/03/04 01:09:07;;;;;;;30.23;14.90;;;-0.30;95.40;;;;;;5070168;28;20383;-54
2022/03/04 01:11:32;;;;;;;29.10;14.97;;;-0.30;96.40;;;;;;5068868;28;20384;-54
2022/03/04 01:13:58;;;;;;;29.33;15.00;;;-0.30;96.80;;;;;;5069811;28;20376;-54
2022/03/04 01:16:25;;;;;;;32.70;15.07;;;-0.30;97.50;;;;;;5069204;28;20388;-54
2022/03/04 01:18:51;;;;;;;29.90;15.52;;;-0.30;97.90;;;;;;5069197;28;20398;-55
2022/03/04 01:21:17;;;;;;;29.08;15.00;;;-0.30;97.90;;;;;;5068467;28;20415;-54
2022/03/04 01:23:43;;;;;;;25.40;14.57;;;-0.40;98.20;;;;;;5069888;28;20457;-55
2022/03/04 01:26:09;;;;;;;27.73;14.90;;;-0.30;98.40;;;;;;5069740;28;20887;-54
2022/03/04 01:28:34;;;;;;;29.10;15.68;;;0.70;99.00;;;;;;5068892;28;20384;-54
2022/03/04 01:31:00;;;;;;;31.37;15.70;;;-0.40;98.70;;;;;;5069654;28;20722;-54
2022/03/04 01:33:26;;;;;;;31.13;15.90;;;-0.40;98.90;;;;;;5068719;28;20802;-54
2022/03/04 01:35:51;;;;;;;27.80;15.52;;;-0.40;99.30;;;;;;5069440;28;20380;-54
2022/03/04 01:38:17;;;;;;;30.30;14.93;;;-0.40;99.50;;;;;;5068750;28;20378;-55
2022/03/04 01:40:43;;;;;;;32.63;14.60;;;-0.30;99.70;;;;;;5069476;28;20903;-54
2022/03/04 01:43:08;;;;;;;27.90;15.25;;;-0.30;99.60;;;;;;5069392;28;20382;-55
2022/03/04 01:45:34;;;;;;;26.45;15.43;;;-0.30;99.50;;;;;;5068585;28;20400;-55
2022/03/04 01:48:00;;;;;;;27.57;14.27;;;-0.40;99.40;;;;;;5069168;28;20813;-54
2022/03/04 01:50:26;;;;;;;27.17;14.20;;;-0.40;99.60;;;;;;5068538;28;20903;-55
2022/03/04 01:52:52;;;;;;;26.17;14.20;;;-0.40;99.60;;;;;;5069375;28;20497;-54
2022/03/04 01:55:18;;;;;;;26.50;14.23;;;-0.30;99.50;;;;;;5068135;28;20398;-55
2022/03/04 01:57:44;;;;;;;25.00;14.30;;;-0.30;99.50;;;;;;5069097;28;20383;-54
2022/03/04 02:00:12;;;;;;;29.98;14.30;;;0.30;99.90;;;;;;5068724;28;20427;-54
2022/03/04 02:02:39;;;;;;;29.50;15.02;;;-0.40;99.90;;;;;;5068535;28;20379;-54
2022/03/04 02:05:05;;;;;;;26.42;15.50;;;-0.40;99.90;;;;;;5069033;28;20380;-54
2022/03/04 02:07:31;;;;;;;29.88;15.30;;;-0.50;99.90;;;;;;5068066;28;20860;-54
2022/03/04 02:09:56;;;;;;;27.70;13.82;;;0.30;99.90;;;;;;5068901;28;20387;-54
2022/03/04 02:12:22;;;;;;;30.93;13.93;;;-0.70;99.90;;;;;;5068315;28;20471;-54
2022/03/04 02:14:48;;;;;;;24.58;13.70;;;0.00;99.90;;;;;;5069027;28;20372;-54
2022/03/04 02:17:13;;;;;;;25.95;12.85;;;-0.70;99.90;;;;;;5068504;28;20388;-56
2022/03/04 02:19:39;;;;;;;25.70;13.87;;;0.70;99.90;;;;;;5068281;28;20903;-54
2022/03/04 02:22:07;;;;;;;25.40;13.15;;;-0.60;99.90;;;;;;5068596;28;20404;-54
2022/03/04 02:24:33;;;;;;;25.52;13.40;;;1.00;99.90;;;;;;5068313;28;20387;-54
2022/03/04 02:27:01;;;;;;;27.42;12.95;;;0.50;99.90;;;;;;5069064;28;20841;-55
2022/03/04 02:29:27;;;;;;;25.00;14.18;;;0.50;99.90;;;;;;5068214;28;20757;-54
2022/03/04 02:31:53;;;;;;;28.27;14.00;;;0.30;99.90;;;;;;5068621;28;20379;-54
2022/03/04 02:34:20;;;;;;;28.70;13.75;;;-0.50;99.90;;;;;;5068179;28;20383;-55
2022/03/04 02:36:46;;;;;;;27.92;14.38;;;-0.50;99.90;;;;;;5068874;28;20493;-54
2022/03/04 02:39:13;;;;;;;28.35;13.07;;;-0.60;99.90;;;;;;5068914;28;20745;-54
2022/03/04 02:41:38;;;;;;;26.27;14.38;;;0.60;99.90;;;;;;5068104;28;20420;-54
2022/03/04 02:44:07;;;;;;;25.70;13.35;;;-0.60;99.90;;;;;;5068585;28;20473;-54
2022/03/04 02:46:33;;;;;;;24.35;13.32;;;-0.50;99.90;;;;;;5068056;28;21254;-54
2022/03/04 02:48:59;;;;;;;24.60;12.85;;;-0.60;99.90;;;;;;5068736;28;20392;-54
2022/03/04 02:51:25;;;;;;;24.88;13.23;;;-0.60;99.90;;;;;;5068439;28;20865;-55
2022/03/04 02:53:51;;;;;;;26.70;12.83;;;-0.60;99.90;;;;;;5068730;28;20750;-54
2022/03/04 02:56:17;;;;;;;25.13;12.90;;;-0.60;99.90;;;;;;5067538;28;20404;-55
2022/03/04 02:58:43;;;;;;;24.48;12.80;;;-0.60;99.90;;;;;;5058914;28;20463;-54
2022/03/04 03:01:10;;;;;;;24.50;13.20;;;-0.60;99.90;;;;;;5068574;28;20443;-55
2022/03/04 03:03:36;;;;;;;25.92;13.38;;;-0.60;99.90;;;;;;5067985;28;20991;-54
2022/03/04 03:06:02;;;;;;;27.50;12.82;;;-0.70;99.90;;;;;;5058862;28;20441;-54
2022/03/04 03:08:29;;;;;;;28.60;14.50;;;-0.80;99.90;;;;;;5071361;28;20388;-54
2022/03/04 03:10:55;;;;;;;25.60;13.27;;;-0.80;99.90;;;;;;5072206;28;20388;-54
2022/03/04 03:13:21;;;;;;;26.35;14.00;;;-0.70;99.90;;;;;;5071697;28;20486;-54
2022/03/04 03:15:47;;;;;;;26.42;13.40;;;-0.40;99.90;;;;;;5071955;28;20537;-54
2022/03/04 03:18:13;;;;;;;25.95;14.20;;;-0.60;99.90;;;;;;5071918;28;20402;-56
2022/03/04 03:20:39;;;;;;;25.77;13.57;;;-0.90;99.90;;;;;;5071615;28;20419;-54
2022/03/04 03:23:05;;;;;;;29.37;14.30;;;0.30;99.90;;;;;;5071859;28;20888;-54
2022/03/04 03:25:31;;;;;;;25.60;12.82;;;-1.00;99.90;;;;;;5070728;28;20396;-54
2022/03/04 03:27:56;;;;;;;26.48;13.98;;;-0.90;99.90;;;;;;5072020;28;20749;-54
2022/03/04 03:30:22;;;;;;;27.30;13.77;;;-1.00;99.90;;;;;;5071053;28;20895;-54
2022/03/04 03:32:48;;;;;;;27.90;13.70;;;0.00;99.90;;;;;;5071678;28;20388;-55
2022/03/04 03:35:14;;;;;;;27.13;13.67;;;-1.10;99.90;;;;;;5071931;28;20725;-56
2022/03/04 03:37:40;;;;;;;27.90;13.50;;;-1.30;99.90;;;;;;5071378;28;20434;-54
2022/03/04 03:40:09;;;;;;;26.60;13.88;;;-1.30;99.90;;;;;;5071834;28;20768;-55
2022/03/04 03:42:35;;;;;;;25.45;13.95;;;-1.30;99.90;;;;;;5071138;28;21051;-54
2022/03/04 03:45:00;;;;;;;26.85;13.50;;;-1.30;99.90;;;;;;5071696;28;20450;-54
2022/03/04 03:47:26;;;;;;;26.98;13.95;;;-1.40;99.90;;;;;;5070567;28;20804;-55
2022/03/04 03:49:52;;;;;;;25.73;13.70;;;-1.40;99.90;;;;;;5071771;28;20396;-54
2022/03/04 03:52:17;;;;;;;27.73;14.17;;;-1.40;99.90;;;;;;5070987;28;20395;-56
2022/03/04 03:54:43;;;;;;;30.20;14.07;;;-1.40;99.90;;;;;;5061992;28;20849;-56
2022/03/04 03:57:10;;;;;;;27.63;14.13;;;-1.40;99.90;;;;;;5071805;28;20438;-56
2022/03/04 03:59:36;;;;;;;27.65;14.10;;;-1.10;99.90;;;;;;5070833;28;20440;-56
2022/03/04 04:02:05;;;;;;;29.80;14.50;;;-1.50;99.90;;;;;;5071609;28;20455;-57
2022/03/04 04:04:38;;;;;;;26.85;14.10;;;-1.50;99.90;;;;;;5061280;28;20426;-56
2022/03/04 04:07:05;;;;;;;25.10;14.00;;;-1.40;99.90;;;;;;5071271;28;20391;-56
2022/03/04 04:09:31;;;;;;;30.33;14.73;;;-1.40;99.90;;;;;;5070599;28;20416;-56
2022/03/04 04:11:58;;;;;;;24.88;13.98;;;-1.40;99.90;;;;;;5071510;28;20889;-56
2022/03/04 04:14:24;;;;;;;30.10;15.23;;;-1.40;99.90;;;;;;5070081;28;20384;-57
2022/03/04 04:16:49;;;;;;;32.67;15.85;;;-1.40;99.90;;;;;;5061513;28;20394;-56
2022/03/04 04:19:15;;;;;;;29.27;14.63;;;-1.40;99.90;;;;;;5070424;28;20384;-61
2022/03/04 04:21:41;;;;;;;29.20;15.30;;;-1.40;99.90;;;;;;5070201;28;20412;-56
2022/03/04 04:24:07;;;;;;;27.03;14.33;;;-1.40;99.90;;;;;;5061572;28;20749;-56
2022/03/04 04:26:33;;;;;;;31.50;15.63;;;-1.50;99.90;;;;;;5070436;28;20376;-56
2022/03/04 04:29:05;;;;;;;31.33;15.93;;;-1.50;99.90;;;;;;5070969;28;20522;-56
2022/03/04 04:31:33;;;;;;;28.53;14.67;;;-1.50;99.90;;;;;;5068365;28;20396;-56
2022/03/04 04:34:00;;;;;;;29.05;14.98;;;-1.60;99.90;;;;;;5071617;28;20390;-56
2022/03/04 04:36:26;;;;;;;26.60;14.07;;;-1.60;99.90;;;;;;5070592;28;20372;-56
2022/03/04 04:38:52;;;;;;;31.38;15.30;;;-1.60;99.90;;;;;;5053489;28;20742;-56
2022/03/04 04:41:18;;;;;;;28.60;15.15;;;-1.60;99.90;;;;;;5067187;28;20516;-58
2022/03/04 04:43:44;;;;;;;30.95;16.25;;;-1.50;99.90;;;;;;5067899;28;20821;-55
2022/03/04 04:46:10;;;;;;;28.90;15.50;;;-1.50;99.90;;;;;;5068013;28;20378;-56
2022/03/04 04:48:37;;;;;;;27.23;14.20;;;-1.50;99.90;;;;;;5070267;28;20392;-56
2022/03/04 04:51:04;;;;;;;28.98;16.23;;;-1.40;99.90;;;;;;5070519;28;20391;-56
2022/03/04 04:53:30;;;;;;;27.37;14.93;;;-1.40;99.90;;;;;;5069838;28;20404;-56
2022/03/04 04:55:56;;;;;;;30.08;15.75;;;-1.50;99.90;;;;;;5070762;28;20388;-56
2022/03/04 04:58:22;;;;;;;32.58;15.93;;;-1.50;99.90;;;;;;5060084;28;20383;-56
2022/03/04 05:00:53;;;;;;;25.88;15.07;;;-0.50;99.90;;;;;;5070005;28;20482;-55
2022/03/04 05:03:22;;;;;;;29.15;15.23;;;-1.50;99.90;;;;;;5067636;28;20419;-57
2022/03/04 05:05:49;;;;;;;28.83;16.23;;;-1.50;99.90;;;;;;5066521;28;20437;-54
2022/03/04 05:08:15;;;;;;;30.35;15.20;;;-1.50;99.90;;;;;;5070273;28;20379;-54
2022/03/04 05:10:41;;;;;;;27.52;14.77;;;-1.50;99.90;;;;;;5069395;28;20469;-55
2022/03/04 05:13:07;;;;;;;26.67;14.25;;;-1.50;99.90;;;;;;5070130;28;20857;-55
2022/03/04 05:15:33;;;;;;;30.80;14.83;;;-1.50;99.90;;;;;;5059663;28;20396;-55
2022/03/04 05:17:58;;;;;;;27.67;15.30;;;-1.60;99.90;;;;;;5070057;28;20376;-55
2022/03/04 05:20:24;;;;;;;29.52;15.93;;;-1.60;99.90;;;;;;5049520;28;20423;-55
2022/03/04 05:22:50;;;;;;;27.50;13.95;;;-1.60;99.90;;;;;;5064858;28;20422;-56
2022/03/04 05:25:15;;;;;;;29.73;14.87;;;0.00;99.90;;;;;;5052858;28;20404;-57
2022/03/04 05:27:41;;;;;;;31.33;14.47;;;-1.80;99.90;;;;;;5087847;28;20374;-57
2022/03/04 05:30:08;;;;;;;31.67;15.90;;;-1.70;99.90;;;;;;5068841;28;20735;-57
2022/03/04 05:32:34;;;;;;;32.80;16.35;;;-1.80;99.90;;;;;;5046838;28;20426;-59
2022/03/04 05:35:00;;;;;;;30.75;15.68;;;-1.90;99.90;;;;;;5066322;28;20398;-57
2022/03/04 05:37:25;;;;;;;32.17;14.95;;;-1.80;99.90;;;;;;5074214;28;20380;-57
2022/03/04 05:39:54;;;;;;;32.30;15.50;;;-1.90;99.90;;;;;;5086510;28;20418;-57
2022/03/04 05:42:20;;;;;;;28.73;15.50;;;-1.80;99.90;;;;;;5075887;28;20386;-58
2022/03/04 05:44:46;;;;;;;32.88;16.77;;;-1.80;99.90;;;;;;5077991;28;21192;-57
2022/03/04 05:47:12;;;;;;;31.85;15.48;;;-1.80;99.90;;;;;;5065613;28;20395;-58
2022/03/04 05:49:38;;;;;;;29.30;14.75;;;-0.10;99.90;;;;;;5065203;28;20405;-57
2022/03/04 05:52:04;;;;;;;27.90;15.18;;;-1.90;99.90;;;;;;5061645;28;20388;-57
2022/03/04 05:54:30;;;;;;;29.50;14.75;;;-1.90;99.90;;;;;;5066055;28;20388;-57
2022/03/04 05:56:56;;;;;;;34.60;14.70;;;-2.00;99.90;;;;;;5069453;28;20383;-57
2022/03/04 05:59:22;;;;;;;30.23;15.57;;;-2.00;99.90;;;;;;5068760;28;20717;-57
2022/03/04 06:01:48;;;;;;;30.02;15.02;;;-2.00;99.90;;;;;;5069424;28;20415;-56
2022/03/04 06:04:13;;;;;;;32.08;16.13;;;-0.40;99.90;;;;;;5069947;28;20437;-57
2022/03/04 06:06:39;;;;;;;33.10;16.02;;;-2.00;99.90;;;;;;5065684;28;20418;-58
2022/03/04 06:09:04;;;;;;;30.10;16.03;;;-2.10;99.90;;;;;;5067162;28;20884;-56
2022/03/04 06:11:30;;;;;;;30.63;15.87;;;-2.10;99.90;;;;;;5064117;28;20439;-58
2022/03/04 06:13:56;;;;;;;31.13;15.38;;;-2.10;99.90;;;;;;5069348;28;20872;-56
2022/03/04 06:16:22;;;;;;;28.52;15.00;;;-2.00;99.90;;;;;;5065955;28;20880;-57
2022/03/04 06:18:47;;;;;;;30.97;14.70;;;-1.40;99.90;;;;;;5064605;28;20442;-57
2022/03/04 06:21:13;;;;;;;30.73;16.57;;;-2.00;99.90;;;;;;5069161;28;20411;-56
2022/03/04 06:23:39;;;;;;;29.17;15.20;;;-2.00;99.90;;;;;;5068375;28;20396;-56
2022/03/04 06:26:05;;;;;;;31.75;16.52;;;-0.30;99.90;;;;;;5069034;28;20483;-56
2022/03/04 06:28:30;;;;;;;31.92;15.70;;;-2.10;99.90;;;;;;5068606;28;20434;-54
2022/03/04 06:30:56;;;;;;;29.27;15.90;;;-1.80;99.90;;;;;;5064524;28;20905;-54
2022/03/04 06:33:30;;;;;;;30.30;15.93;;;-1.10;99.90;;;;;;5043682;28;20394;-54
2022/03/04 06:35:59;;;;;;;27.98;15.15;;;0.20;99.90;;;;;;5069681;28;20462;-57
2022/03/04 06:38:25;;;;;;;27.17;14.50;;;1.10;99.90;;;;;;5050323;28;20595;-57
2022/03/04 06:40:51;;;;;;;26.27;13.90;;;1.90;99.90;;;;;;5068491;28;20498;-57
2022/03/04 06:43:18;;;;;;;27.58;15.38;;;3.40;99.90;;;;;;5069651;28;20401;-59
2022/03/04 06:45:45;;;;;;;27.10;14.48;;;2.40;99.90;;;;;;5055099;28;20388;-57
2022/03/04 06:48:13;;;;;;;27.13;14.83;;;2.70;99.90;;;;;;5065705;28;20393;-57
2022/03/04 06:50:39;;;;;;;28.45;14.57;;;4.30;99.90;;;;;;5056054;28;20557;-54
2022/03/04 06:53:05;;;;;;;29.75;16.48;;;4.60;99.90;;;;;;5072824;28;20430;-55
2022/03/04 06:55:32;;;;;;;24.67;14.98;;;4.90;97.90;;;;;;5072701;28;20729;-54
2022/03/04 06:57:58;;;;;;;29.40;15.40;;;5.40;95.40;;;;;;5073166;28;20502;-55
2022/03/04 07:00:25;;;;;;;26.17;15.63;;;5.90;94.00;;;;;;5072423;28;20494;-54
2022/03/04 07:02:51;;;;;;;28.42;16.15;;;6.80;91.40;;;;;;5073350;28;20386;-54
2022/03/04 07:05:17;;;;;;;25.65;15.90;;;7.20;87.90;;;;;;5063715;28;20884;-57
2022/03/04 07:07:43;;;;;;;26.97;17.37;;;7.60;85.70;;;;;;5072340;28;20410;-55
2022/03/04 07:10:08;;;;;;;26.05;17.58;;;7.10;86.10;;;;;;5072816;28;20384;-55
2022/03/04 07:12:36;;;;;;;26.73;18.77;;;7.80;83.10;;;;;;5072153;28;20390;-55
2022/03/04 07:15:02;;;;;;;27.10;20.48;;;8.00;81.40;;;;;;5072485;28;20394;-55
2022/03/04 07:17:28;;;;;;;29.52;16.63;;;8.20;80.00;;;;;;5071370;28;20407;-57
2022/03/04 07:19:54;;;;;;;24.50;15.90;;;8.30;79.30;;;;;;5072398;28;20415;-57
2022/03/04 07:22:19;;;;;;;25.48;16.55;;;8.20;77.80;;;;;;5071845;28;20412;-59
2022/03/04 07:24:45;;;;;;;26.25;16.75;;;8.00;78.00;;;;;;5072658;28;20379;-57
2022/03/04 07:27:11;;;;;;;26.37;16.83;;;7.80;78.60;;;;;;5072560;28;20753;-57
2022/03/04 07:29:36;;;;;;;25.60;16.30;;;8.10;79.50;;;;;;5071989;28;20372;-58
2022/03/04 07:32:02;;;;;;;29.63;16.47;;;8.80;77.30;;;;;;5059493;28;20874;-54
2022/03/04 07:34:27;;;;;;;26.90;17.25;;;8.80;76.50;;;;;;5063068;28;20391;-57
2022/03/04 07:36:53;;;;;;;29.08;16.77;;;8.80;76.60;;;;;;5034466;28;20385;-57
2022/03/04 07:39:19;;;;;;;30.97;17.27;;;9.30;75.20;;;;;;5056658;28;20392;-59
2022/03/04 07:41:48;;;;;;;29.10;18.27;;;9.40;73.60;;;;;;5072061;28;20415;-55
2022/03/04 07:44:14;;;;;;;28.00;18.00;;;9.90;72.50;;;;;;5071939;28;20412;-55
2022/03/04 07:46:40;;;;;;;29.25;22.70;;;10.80;69.30;;;;;;5052410;28;20562;-54
2022/03/04 07:49:06;;;;;;;31.17;26.25;;;11.40;66.60;;;;;;5059560;28;20858;-55
2022/03/04 07:51:31;;;;;;;32.60;24.02;;;11.50;63.40;;;;;;5051399;28;20875;-55
2022/03/04 07:53:57;;;;;;;39.20;25.63;;;11.00;64.10;;;;;;5057939;28;20436;-54
2022/03/04 07:56:23;;;;;;;31.95;24.30;;;11.60;62.60;;;;;;5052573;28;20753;-55
2022/03/04 07:58:49;;;;;;;31.10;24.25;;;12.60;61.00;;;;;;5055832;28;20919;-55
2022/03/04 08:01:15;;;;;;;30.23;23.80;;;12.70;57.40;;;;;;5051741;28;20417;-55
2022/03/04 08:03:42;;;;;;;31.70;23.93;;;12.00;58.40;;;;;;5051078;28;20559;-55
2022/03/04 08:06:08;;;;;;;31.95;23.55;;;11.80;59.20;;;;;;5051884;28;20381;-55
2022/03/04 08:08:34;;;;;;;31.50;23.60;;;11.60;58.50;;;;;;5050999;28;20855;-55
2022/03/04 08:11:01;;;;;;;29.95;23.60;;;11.80;58.90;;;;;;5051573;28;20482;-55
2022/03/04 08:13:26;;;;;;;30.20;23.42;;;11.80;57.70;;;;;;5057042;28;20388;-55
2022/03/04 08:15:52;;;;;;;32.13;24.37;;;12.20;57.50;;;;;;5071411;28;21159;-55
2022/03/04 08:18:18;;;;;;;31.93;24.80;;;12.40;56.80;;;;;;5065297;28;20922;-55
2022/03/04 08:20:44;;;;;;;33.10;24.52;;;12.70;55.90;;;;;;5057549;28;20443;-56
2022/03/04 08:23:11;;;;;;;31.10;24.25;;;12.70;55.60;;;;;;5075331;28;20415;-55
2022/03/04 08:25:38;;;;;;;34.05;24.20;;;12.50;55.40;;;;;;5088008;28;20435;-55
2022/03/04 08:28:04;;;;;;;33.08;26.23;;;12.40;55.70;;;;;;5091327;28;20364;-55
2022/03/04 08:30:30;;;;;;;32.50;26.13;;;13.10;54.90;;;;;;5090082;28;20481;-55
2022/03/04 08:32:56;;;;;;;30.40;25.60;;;13.60;55.60;;;;;;5091440;28;20420;-55
2022/03/04 08:35:21;;;;;;;34.17;25.63;;;13.50;53.00;;;;;;5090695;28;20389;-58
2022/03/04 08:37:47;;;;;;;35.53;25.30;;;14.60;49.40;;;;;;5091233;28;20370;-55
2022/03/04 08:40:13;;;;;;;30.15;21.60;;;14.80;49.30;;;;;;5091331;28;20431;-56
2022/03/04 08:42:41;;;;;;;30.97;22.73;;;15.60;46.20;;;;;;5090073;28;20401;-56
2022/03/04 08:45:08;;;;;;;30.88;20.30;;;15.60;46.10;;;;;;5091253;28;20831;-56
2022/03/04 08:47:34;;;;;;;32.88;25.67;;;;;;;;;;5090363;28;20393;-57
2022/03/04 08:49:59;;;;;;;33.80;26.85;;;16.80;43.40;;;;;;5091378;28;20385;-56
2022/03/04 08:52:25;;;;;;;31.85;21.40;;;17.40;43.20;;;;;;5090095;28;20438;-57
2022/03/04 08:54:51;;;;;;;30.83;21.10;;;17.60;42.20;;;;;;5091130;28;20742;-54
2022/03/04 08:57:16;;;;;;;29.80;20.03;;;17.70;40.90;;;;;;5090997;28;20387;-55
2022/03/04 08:59:42;;;;;;;29.00;21.08;;;18.00;40.30;;;;;;5090274;28;21063;-56
2022/03/04 09:02:08;;;;;;;31.45;20.58;;;17.60;40.10;;;;;;5090761;28;20378;-56
2022/03/04 09:04:34;;;;;;;31.10;21.08;;;17.10;40.70;;;;;;5090550;28;20561;-55
2022/03/04 09:07:02;;;;;;;29.63;21.23;;;17.60;40.10;;;;;;5090213;28;20726;-55
2022/03/04 09:09:28;;;;;;;36.17;21.83;;;18.60;39.10;;;;;;5089876;28;20882;-56
2022/03/04 09:11:54;;;;;;;31.60;21.90;;;19.00;37.20;;;;;;5090486;28;20379;-55
2022/03/04 09:14:23;;;;;;;31.67;21.88;;;18.50;37.20;;;;;;5078232;28;20383;-57
2022/03/04 09:16:49;;;;;;;30.05;21.60;;;19.20;36.70;;;;;;5070363;28;20443;-56
2022/03/04 09:19:14;;;;;;;32.05;21.95;;;19.20;36.10;;;;;;5070262;28;20403;-56
2022/03/04 09:21:40;;;;;;;34.57;21.83;;;19.50;34.60;;;;;;5068539;28;20482;-56
2022/03/04 09:24:07;;;;;;;29.77;20.60;;;19.80;34.20;;;;;;5070297;28;20411;-56
2022/03/04 09:26:34;;;;;;;32.47;20.88;;;20.10;34.20;;;;;;5068617;28;20454;-56
2022/03/04 09:29:00;;;;;;;31.67;20.80;;;19.60;33.80;;;;;;5070356;28;20741;-56
2022/03/04 09:31:25;;;;;;;30.40;21.40;;;19.90;33.20;;;;;;5068948;28;20433;-56
2022/03/04 09:33:51;;;;;;;30.73;20.80;;;19.50;33.00;;;;;;5052275;28;20388;-56
2022/03/04 09:36:18;;;;;;;32.88;21.63;;;19.40;33.40;;;;;;5069744;28;20391;-56
2022/03/04 09:38:44;;;;;;;32.17;21.95;;;19.80;32.50;;;;;;5069014;28;20490;-57
2022/03/04 09:41:11;;;;;;;34.38;21.95;;;20.00;32.10;;;;;;5069382;28;20514;-57
2022/03/04 09:43:38;;;;;;;29.42;21.52;;;19.90;32.40;;;;;;5068885;28;20396;-55
2022/03/04 09:46:04;;;;;;;32.80;24.00;;;19.40;32.60;;;;;;5069715;28;20390;-56
2022/03/04 09:48:30;;;;;;;33.88;27.58;;;19.30;32.50;;;;;;5069029;28;20410;-56
2022/03/04 09:50:56;;;;;;;30.48;26.05;;;19.40;32.10;;;;;;5069451;28;20392;-56
2022/03/04 09:53:21;;;;;;;33.57;23.10;;;18.60;32.00;;;;;;5069131;28;20450;-58
2022/03/04 09:55:47;;;;;;;29.80;21.20;;;17.90;33.80;;;;;;5051111;28;20419;-57
2022/03/04 09:58:16;;;;;;;32.45;22.52;;;18.90;32.10;;;;;;5069099;28;20378;-56
2022/03/04 10:00:43;;;;;;;36.67;26.05;;;18.30;32.60;;;;;;5068341;28;20435;-56
2022/03/04 10:03:31;;;;;;;37.20;27.30;;;17.80;33.40;;;;;;5051495;28;20449;-57
2022/03/04 10:05:59;;;;;;;33.78;26.30;;;17.40;34.50;;;;;;5069509;28;20388;-56
2022/03/04 10:08:25;;;;;;;36.00;27.20;;;18.00;32.90;;;;;;5068685;28;20423;-58
2022/03/04 10:10:53;;;;;;;33.87;25.70;;;18.50;32.80;;;;;;5069611;28;21278;-56
2022/03/04 10:13:49;;;;;;;37.72;28.85;;;18.20;33.40;;;;;;5069556;28;20419;-57
2022/03/04 10:16:24;;;;;;;39.83;28.27;;;18.50;33.60;;;;;;5069042;28;20484;-60
2022/03/04 10:19:15;;;;;;;35.58;27.38;;;18.00;33.20;;;;;;5069665;28;20390;-56
2022/03/04 10:21:49;;;;;;;35.22;26.73;;;17.60;33.20;;;;;;5068229;28;20419;-57
2022/03/04 10:24:27;;;;;;;35.50;27.85;;;17.80;32.60;;;;;;5069237;28;20387;-57
2022/03/04 10:27:13;;;;;;;34.85;26.10;;;16.50;33.80;;;;;;5069254;28;20399;-56
2022/03/04 10:29:56;;;;;;;35.47;27.48;;;17.80;31.80;;;;;;5067955;28;20742;-56
2022/03/04 10:32:26;;;;;;;32.17;25.67;;;18.10;31.80;;;;;;5068785;28;20384;-59
2022/03/04 10:35:11;;;;;;;33.17;24.65;;;18.30;31.50;;;;;;5068748;28;20384;-57
2022/03/04 10:37:54;;;;;;;32.00;24.87;;;18.60;30.20;;;;;;5068270;28;20398;-56
2022/03/04 10:40:35;;;;;;;33.47;26.88;;;18.50;30.50;;;;;;5068853;28;20408;-57
2022/03/04 10:43:05;;;;;;;32.70;25.35;;;18.20;31.70;;;;;;5066347;28;20888;-57
2022/03/04 10:45:37;;;;;;;35.40;25.10;;;18.20;32.20;;;;;;5068372;28;20903;-56
2022/03/04 10:48:09;;;;;;;30.10;25.17;;;18.40;30.50;;;;;;5068994;28;20474;-57
2022/03/04 10:50:50;;;;;;;33.00;25.23;;;17.90;30.60;;;;;;5068552;28;20824;-56
2022/03/04 10:53:24;;;;;;;33.55;25.63;;;17.50;30.60;;;;;;5068955;28;20436;-56
2022/03/04 10:55:55;;;;;;;31.87;25.20;;;18.10;31.10;;;;;;5068652;28;20426;-56
2022/03/04 10:58:34;;;;;;;35.22;26.08;;;17.30;30.90;;;;;;5068871;28;20380;-56
2022/03/04 11:01:09;;;;;;;37.55;28.40;;;16.30;32.10;;;;;;5068838;28;20400;-56
2022/03/04 11:03:36;;;;;;;33.42;28.08;;;15.50;33.50;;;;;;5068062;28;20405;-57
2022/03/04 11:06:28;;;;;;;30.17;24.23;;;15.90;33.40;;;;;;5068932;28;20406;-57
2022/03/04 11:08:54;;;;;;;38.50;27.70;;;17.60;31.40;;;;;;5066005;28;20395;-56
2022/03/04 11:11:20;;;;;;;33.17;25.33;;;17.80;30.80;;;;;;5068511;28;20371;-56
2022/03/04 11:13:46;;;;;;;32.92;24.60;;;18.00;30.90;;;;;;5067748;28;20427;-56
2022/03/04 11:16:12;;;;;;;32.90;25.55;;;18.00;30.00;;;;;;5068774;28;20403;-56
2022/03/04 11:18:37;;;;;;;33.67;25.83;;;17.60;30.40;;;;;;5049534;28;20566;-56
2022/03/04 11:21:04;;;;;;;28.87;23.47;;;16.80;30.50;;;;;;5068377;28;20480;-56
2022/03/04 11:23:32;;;;;;;32.67;24.83;;;15.90;31.60;;;;;;5067962;28;20448;-56
2022/03/04 11:26:18;;;;;;;31.98;24.63;;;16.00;32.60;;;;;;5068654;28;20380;-56
2022/03/04 11:28:49;;;;;;;30.70;25.55;;;16.20;31.30;;;;;;5070570;28;20376;-56
2022/03/04 11:31:20;;;;;;;31.40;24.38;;;15.80;31.40;;;;;;5072528;28;20376;-56
2022/03/04 11:33:58;;;;;;;33.75;25.25;;;15.90;31.70;;;;;;5071666;28;20632;-57
2022/03/04 11:36:29;;;;;;;31.80;24.77;;;15.90;32.20;;;;;;5071839;28;20376;-58
2022/03/04 11:39:04;;;;;;;33.65;24.83;;;16.00;32.20;;;;;;5072603;28;20380;-56
2022/03/04 11:41:37;;;;;;;34.63;25.63;;;15.60;32.20;;;;;;5071358;28;20411;-56
2022/03/04 11:44:12;;;;;;;31.95;22.80;;;15.20;32.80;;;;;;5072069;28;20942;-56
2022/03/04 11:46:42;;;;;;;32.45;24.52;;;14.20;32.40;;;;;;5071027;28;20434;-56
2022/03/04 11:49:48;;;;;;;32.22;24.35;;;13.70;33.80;;;;;;5071533;28;20384;-56
2022/03/04 11:52:20;;;;;;;30.55;23.75;;;13.10;34.80;;;;;;5071666;28;20399;-54
2022/03/04 11:55:08;;;;;;;30.40;23.23;;;12.90;35.40;;;;;;5071126;28;20406;-54
2022/03/04 11:57:39;;;;;;;28.80;18.55;;;12.70;33.90;;;;;;5070984;28;20775;-57
2022/03/04 12:00:14;;;;;;;29.95;17.30;;;12.40;34.80;;;;;;5072103;28;20416;-57
2022/03/04 12:02:55;;;;;;;28.65;17.02;;;11.80;34.70;;;;;;5070962;28;20387;-56
2022/03/04 12:05:22;;;;;;;29.63;17.30;;;11.80;35.00;;;;;;5071963;28;20379;-56
2022/03/04 12:07:51;;;;;;;29.55;16.90;;;11.90;35.20;;;;;;5053127;28;20457;-54
2022/03/04 12:10:22;;;;;;;30.02;16.48;;;12.30;35.90;;;;;;5071738;28;20392;-55
2022/03/04 12:13:08;;;;;;;25.23;14.65;;;12.40;35.30;;;;;;5071091;28;20372;-55
2022/03/04 12:15:48;;;;;;;28.80;16.45;;;12.50;34.20;;;;;;5051077;28;20393;-55
2022/03/04 12:18:29;;;;;;;27.02;16.13;;;12.70;34.10;;;;;;5051721;28;20463;-54
2022/03/04 12:20:59;;;;;;;31.20;16.97;;;12.40;34.10;;;;;;5051362;28;20414;-55
2022/03/04 12:23:30;;;;;;;27.50;16.23;;;12.20;35.40;;;;;;5050877;28;20529;-56
2022/03/04 12:25:59;;;;;;;30.15;16.60;;;11.90;35.10;;;;;;5051570;28;20944;-54
2022/03/04 12:28:46;;;;;;;30.23;17.00;;;12.00;35.70;;;;;;5051142;28;20909;-57
2022/03/04 12:31:12;;;;;;;28.38;16.17;;;12.10;35.70;;;;;;5051750;28;20459;-55